メインページ
METAR-TAF:

METAR-TAF

空港 :

Mount Clemens, ミシガン州, アメリカ合衆国

緯度: 42-37N, 経度: 082-50W, 海抜: 177m

現時点の気象観測

当レポートは1時間19分前の21:55(UTC)に作成
西の風 10kt
気温 5°C
湿度 38%
気圧 1017 hPa
視程: 16.1km
高度14000ftの雲はほとんどない
高度23000ftの千切れ雲あり

METAR: KMTC 162155Z 26010KT 10SM FEW140 BKN230 05/M08 A3002 RMK AO2A SLP176 T00511077

時間: 18:14 (23:14 UTC)

予報

当レポートは6時間14分前の17:00(UTC)に作成
予報は16日の 17時(UTC)から 17日の 23時(UTC)まで有効
西の風 9kt
視程: 1621m
高度15000ftの雲はほとんどない
17日の 08時(UTC)から 17日の 09時(UTC)まで徐々に
変向風 6kt
視程10km以上
高度1500ftの雲は散在している
高度3000ftの千切れ雲あり
17日の 20時(UTC)から 17日の 21時(UTC)まで徐々に
東/南東の風 12kt
視程10km以上
高度9000ftの雲は散在している

TAF: KMTC 161700Z 1617/1723 27012KT 9999 FEW150 QNH3003INS WND 27009KT AFT 1621 BECMG 1708/1709 VRB06KT 9999 SCT015 BKN030 QNH3019INS BECMG 1720/1721 12012KT 9999 SCT090 QNH3017INS TX05/1621Z TNM05/1712Z

4,000以上の空港の気象観測と天気予報(METAR報とTAF報)

利用可能な観測所は地図上に黄色い丸と赤い丸で示す。

丸の上にカーソルを重ねると観測所名を参照できる。

次にクリックすると気象観測と天気予報を参照できる。

マップの切り替え:黒色「×」印の緑ボタンをクリックして拡大、「-」印の緑ボタンをクリックして縮小、緑色の三角印をクリックして隣りの地図に切り替え


METAR-TAF: